sensor_id;sensor_type;location;lat;lon;timestamp;temperature;humidity
15717;DHT22;7960;50.908;4.204;2023-07-13T00:01:28;17.50;99.90
15717;DHT22;7960;50.908;4.204;2023-07-13T00:03:55;17.40;99.90
15717;DHT22;7960;50.908;4.204;2023-07-13T00:06:21;17.30;99.90
15717;DHT22;7960;50.908;4.204;2023-07-13T00:08:48;17.30;99.90
15717;DHT22;7960;50.908;4.204;2023-07-13T00:11:15;17.20;99.90
15717;DHT22;7960;50.908;4.204;2023-07-13T00:13:44;17.20;99.90
15717;DHT22;7960;50.908;4.204;2023-07-13T00:16:11;17.30;99.90
15717;DHT22;7960;50.908;4.204;2023-07-13T00:18:39;17.10;99.90
15717;DHT22;7960;50.908;4.204;2023-07-13T00:21:06;17.10;99.90
15717;DHT22;7960;50.908;4.204;2023-07-13T00:23:34;17.30;99.90
15717;DHT22;7960;50.908;4.204;2023-07-13T00:26:03;17.20;99.90
15717;DHT22;7960;50.908;4.204;2023-07-13T00:28:31;17.20;99.90
15717;DHT22;7960;50.908;4.204;2023-07-13T00:30:59;17.20;99.90
15717;DHT22;7960;50.908;4.204;2023-07-13T00:33:27;17.20;99.90
15717;DHT22;7960;50.908;4.204;2023-07-13T00:35:54;17.30;99.90
15717;DHT22;7960;50.908;4.204;2023-07-13T00:38:21;17.20;99.90
15717;DHT22;7960;50.908;4.204;2023-07-13T00:40:48;17.20;99.90
15717;DHT22;7960;50.908;4.204;2023-07-13T00:43:17;17.10;99.90
15717;DHT22;7960;50.908;4.204;2023-07-13T00:46:24;17.10;99.90
15717;DHT22;7960;50.908;4.204;2023-07-13T00:48:53;17.10;99.90
15717;DHT22;7960;50.908;4.204;2023-07-13T00:51:25;17.10;99.90
15717;DHT22;7960;50.908;4.204;2023-07-13T00:53:55;17.00;99.90
15717;DHT22;7960;50.908;4.204;2023-07-13T00:56:23;17.00;99.90
15717;DHT22;7960;50.908;4.204;2023-07-13T00:58:50;17.00;99.90
15717;DHT22;7960;50.908;4.204;2023-07-13T01:01:18;17.00;99.90
15717;DHT22;7960;50.908;4.204;2023-07-13T01:03:45;17.10;99.90
15717;DHT22;7960;50.908;4.204;2023-07-13T01:06:12;17.00;99.90
15717;DHT22;7960;50.908;4.204;2023-07-13T01:08:39;16.80;99.90
15717;DHT22;7960;50.908;4.204;2023-07-13T01:11:06;16.90;99.90
15717;DHT22;7960;50.908;4.204;2023-07-13T01:13:34;16.80;99.90
15717;DHT22;7960;50.908;4.204;2023-07-13T01:16:05;16.70;99.90
15717;DHT22;7960;50.908;4.204;2023-07-13T01:18:40;16.70;99.90
15717;DHT22;7960;50.908;4.204;2023-07-13T01:21:08;16.70;99.90
15717;DHT22;7960;50.908;4.204;2023-07-13T01:23:35;16.70;99.90
15717;DHT22;7960;50.908;4.204;2023-07-13T01:26:02;16.70;99.90
15717;DHT22;7960;50.908;4.204;2023-07-13T01:28:29;16.60;99.90
15717;DHT22;7960;50.908;4.204;2023-07-13T01:30:58;16.30;99.90
15717;DHT22;7960;50.908;4.204;2023-07-13T01:33:25;16.40;99.90
15717;DHT22;7960;50.908;4.204;2023-07-13T01:35:52;16.60;99.90
15717;DHT22;7960;50.908;4.204;2023-07-13T01:38:22;16.50;99.90
15717;DHT22;7960;50.908;4.204;2023-07-13T01:40:49;16.50;99.90
15717;DHT22;7960;50.908;4.204;2023-07-13T01:43:16;16.40;99.90
15717;DHT22;7960;50.908;4.204;2023-07-13T01:45:44;16.20;99.90
15717;DHT22;7960;50.908;4.204;2023-07-13T01:48:11;16.20;99.90
15717;DHT22;7960;50.908;4.204;2023-07-13T01:50:38;16.10;99.90
15717;DHT22;7960;50.908;4.204;2023-07-13T01:53:05;16.30;99.90
15717;DHT22;7960;50.908;4.204;2023-07-13T01:55:33;16.10;99.90
15717;DHT22;7960;50.908;4.204;2023-07-13T01:58:01;15.80;99.90
15717;DHT22;7960;50.908;4.204;2023-07-13T02:00:28;16.00;99.90
15717;DHT22;7960;50.908;4.204;2023-07-13T02:02:55;16.00;99.90
15717;DHT22;7960;50.908;4.204;2023-07-13T02:05:22;16.10;99.90
15717;DHT22;7960;50.908;4.204;2023-07-13T02:07:48;16.00;99.90
15717;DHT22;7960;50.908;4.204;2023-07-13T02:10:15;15.90;99.90
15717;DHT22;7960;50.908;4.204;2023-07-13T02:12:44;15.80;99.90
15717;DHT22;7960;50.908;4.204;2023-07-13T02:15:11;15.70;99.90
15717;DHT22;7960;50.908;4.204;2023-07-13T02:17:38;15.60;99.90
15717;DHT22;7960;50.908;4.204;2023-07-13T02:20:06;15.80;99.90
15717;DHT22;7960;50.908;4.204;2023-07-13T02:22:33;15.90;99.90
15717;DHT22;7960;50.908;4.204;2023-07-13T02:25:00;15.90;99.90
15717;DHT22;7960;50.908;4.204;2023-07-13T02:27:27;15.90;99.90
15717;DHT22;7960;50.908;4.204;2023-07-13T02:29:55;15.70;99.90
15717;DHT22;7960;50.908;4.204;2023-07-13T02:32:22;15.80;99.90
15717;DHT22;7960;50.908;4.204;2023-07-13T02:34:50;15.70;99.90
15717;DHT22;7960;50.908;4.204;2023-07-13T02:37:17;15.80;99.90
15717;DHT22;7960;50.908;4.204;2023-07-13T02:39:44;15.70;99.90
15717;DHT22;7960;50.908;4.204;2023-07-13T02:42:11;15.80;99.90
15717;DHT22;7960;50.908;4.204;2023-07-13T02:44:38;15.70;99.90
15717;DHT22;7960;50.908;4.204;2023-07-13T02:47:06;15.50;99.90
15717;DHT22;7960;50.908;4.204;2023-07-13T02:49:33;15.50;99.90
15717;DHT22;7960;50.908;4.204;2023-07-13T02:52:00;15.30;99.90
15717;DHT22;7960;50.908;4.204;2023-07-13T02:54:27;15.50;99.90
15717;DHT22;7960;50.908;4.204;2023-07-13T02:56:54;15.60;99.90
15717;DHT22;7960;50.908;4.204;2023-07-13T02:59:21;15.50;99.90
15717;DHT22;7960;50.908;4.204;2023-07-13T03:01:48;15.50;99.90
15717;DHT22;7960;50.908;4.204;2023-07-13T03:04:16;15.40;99.90
15717;DHT22;7960;50.908;4.204;2023-07-13T03:06:45;15.30;99.90
15717;DHT22;7960;50.908;4.204;2023-07-13T03:09:12;15.40;99.90
15717;DHT22;7960;50.908;4.204;2023-07-13T03:11:39;15.30;99.90
15717;DHT22;7960;50.908;4.204;2023-07-13T03:14:06;15.10;99.90
15717;DHT22;7960;50.908;4.204;2023-07-13T03:16:33;15.20;99.90
15717;DHT22;7960;50.908;4.204;2023-07-13T03:19:00;15.30;99.90
15717;DHT22;7960;50.908;4.204;2023-07-13T03:21:28;15.50;99.90
15717;DHT22;7960;50.908;4.204;2023-07-13T03:23:55;15.50;99.90
15717;DHT22;7960;50.908;4.204;2023-07-13T03:26:22;15.60;99.90
15717;DHT22;7960;50.908;4.204;2023-07-13T03:28:49;15.60;99.90
15717;DHT22;7960;50.908;4.204;2023-07-13T03:31:17;15.40;99.90
15717;DHT22;7960;50.908;4.204;2023-07-13T03:33:44;15.20;99.90
15717;DHT22;7960;50.908;4.204;2023-07-13T03:36:14;15.10;99.90
15717;DHT22;7960;50.908;4.204;2023-07-13T03:38:46;15.20;99.90
15717;DHT22;7960;50.908;4.204;2023-07-13T03:41:14;15.10;99.90
15717;DHT22;7960;50.908;4.204;2023-07-13T03:43:40;15.20;99.90
15717;DHT22;7960;50.908;4.204;2023-07-13T03:46:07;15.20;99.90
15717;DHT22;7960;50.908;4.204;2023-07-13T03:48:34;15.40;99.90
15717;DHT22;7960;50.908;4.204;2023-07-13T03:51:01;15.40;99.90
15717;DHT22;7960;50.908;4.204;2023-07-13T03:53:28;15.40;99.90
15717;DHT22;7960;50.908;4.204;2023-07-13T03:55:56;15.50;99.90
15717;DHT22;7960;50.908;4.204;2023-07-13T03:58:26;15.60;99.90
15717;DHT22;7960;50.908;4.204;2023-07-13T04:00:54;15.60;99.90
15717;DHT22;7960;50.908;4.204;2023-07-13T04:03:21;15.50;99.90
15717;DHT22;7960;50.908;4.204;2023-07-13T04:05:48;15.60;99.90
15717;DHT22;7960;50.908;4.204;2023-07-13T04:08:15;15.60;99.90
15717;DHT22;7960;50.908;4.204;2023-07-13T04:10:42;15.60;99.90
15717;DHT22;7960;50.908;4.204;2023-07-13T04:13:11;15.70;99.90
15717;DHT22;7960;50.908;4.204;2023-07-13T04:15:39;15.70;99.90
15717;DHT22;7960;50.908;4.204;2023-07-13T04:18:05;15.80;99.90
15717;DHT22;7960;50.908;4.204;2023-07-13T04:20:32;15.70;99.90
15717;DHT22;7960;50.908;4.204;2023-07-13T04:22:59;15.80;99.90
15717;DHT22;7960;50.908;4.204;2023-07-13T04:25:26;15.80;99.90
15717;DHT22;7960;50.908;4.204;2023-07-13T04:27:53;15.80;99.90
15717;DHT22;7960;50.908;4.204;2023-07-13T04:30:24;15.70;99.90
15717;DHT22;7960;50.908;4.204;2023-07-13T04:32:52;15.70;99.90
15717;DHT22;7960;50.908;4.204;2023-07-13T04:35:19;15.80;99.90
15717;DHT22;7960;50.908;4.204;2023-07-13T04:37:47;15.80;99.90
15717;DHT22;7960;50.908;4.204;2023-07-13T04:40:16;15.90;99.90
15717;DHT22;7960;50.908;4.204;2023-07-13T04:42:43;15.90;99.90
15717;DHT22;7960;50.908;4.204;2023-07-13T04:45:10;16.00;99.90
15717;DHT22;7960;50.908;4.204;2023-07-13T04:47:38;15.90;99.90
15717;DHT22;7960;50.908;4.204;2023-07-13T04:50:06;16.00;99.90
15717;DHT22;7960;50.908;4.204;2023-07-13T04:52:33;16.00;99.90
15717;DHT22;7960;50.908;4.204;2023-07-13T04:55:00;16.00;99.90
15717;DHT22;7960;50.908;4.204;2023-07-13T04:57:27;16.00;99.90
15717;DHT22;7960;50.908;4.204;2023-07-13T04:59:54;16.00;99.90
15717;DHT22;7960;50.908;4.204;2023-07-13T05:02:21;16.00;99.90
15717;DHT22;7960;50.908;4.204;2023-07-13T05:04:49;16.00;99.90
15717;DHT22;7960;50.908;4.204;2023-07-13T05:07:16;16.00;99.90
15717;DHT22;7960;50.908;4.204;2023-07-13T05:09:43;16.00;99.90
15717;DHT22;7960;50.908;4.204;2023-07-13T05:12:10;16.00;99.90
15717;DHT22;7960;50.908;4.204;2023-07-13T05:14:37;16.10;99.90
15717;DHT22;7960;50.908;4.204;2023-07-13T05:17:04;16.10;99.90
15717;DHT22;7960;50.908;4.204;2023-07-13T05:19:31;16.20;99.90
15717;DHT22;7960;50.908;4.204;2023-07-13T05:21:59;16.20;99.90
15717;DHT22;7960;50.908;4.204;2023-07-13T05:24:26;16.20;99.90
15717;DHT22;7960;50.908;4.204;2023-07-13T05:26:53;16.20;99.90
15717;DHT22;7960;50.908;4.204;2023-07-13T05:29:20;16.20;99.90
15717;DHT22;7960;50.908;4.204;2023-07-13T05:31:48;16.20;99.90
15717;DHT22;7960;50.908;4.204;2023-07-13T05:34:15;16.10;99.90
15717;DHT22;7960;50.908;4.204;2023-07-13T05:36:42;16.20;99.90
15717;DHT22;7960;50.908;4.204;2023-07-13T05:39:10;16.20;99.90
15717;DHT22;7960;50.908;4.204;2023-07-13T05:41:37;16.20;99.90
15717;DHT22;7960;50.908;4.204;2023-07-13T05:44:04;16.30;99.90
15717;DHT22;7960;50.908;4.204;2023-07-13T05:46:31;16.30;99.90
15717;DHT22;7960;50.908;4.204;2023-07-13T05:48:58;16.40;99.90
15717;DHT22;7960;50.908;4.204;2023-07-13T05:51:24;16.40;99.90
15717;DHT22;7960;50.908;4.204;2023-07-13T05:53:51;16.40;99.90
15717;DHT22;7960;50.908;4.204;2023-07-13T05:56:19;16.50;99.90
15717;DHT22;7960;50.908;4.204;2023-07-13T05:58:47;16.40;99.90
15717;DHT22;7960;50.908;4.204;2023-07-13T06:01:15;16.40;99.90
15717;DHT22;7960;50.908;4.204;2023-07-13T06:03:43;16.50;99.90
15717;DHT22;7960;50.908;4.204;2023-07-13T06:06:10;16.50;99.90
15717;DHT22;7960;50.908;4.204;2023-07-13T06:08:37;16.50;99.90
15717;DHT22;7960;50.908;4.204;2023-07-13T06:11:05;16.50;99.90
15717;DHT22;7960;50.908;4.204;2023-07-13T06:13:34;16.60;99.90
15717;DHT22;7960;50.908;4.204;2023-07-13T06:16:01;16.60;99.90
15717;DHT22;7960;50.908;4.204;2023-07-13T06:18:29;16.50;99.90
15717;DHT22;7960;50.908;4.204;2023-07-13T06:20:56;16.50;99.90
15717;DHT22;7960;50.908;4.204;2023-07-13T06:23:24;16.60;99.90
15717;DHT22;7960;50.908;4.204;2023-07-13T06:25:51;16.60;99.90
15717;DHT22;7960;50.908;4.204;2023-07-13T06:28:19;16.70;99.90
15717;DHT22;7960;50.908;4.204;2023-07-13T06:30:47;16.70;99.90
15717;DHT22;7960;50.908;4.204;2023-07-13T06:33:14;16.70;99.90
15717;DHT22;7960;50.908;4.204;2023-07-13T06:35:41;16.80;99.90
15717;DHT22;7960;50.908;4.204;2023-07-13T06:38:07;16.80;99.90
15717;DHT22;7960;50.908;4.204;2023-07-13T06:40:34;16.90;99.90
15717;DHT22;7960;50.908;4.204;2023-07-13T06:43:01;16.90;99.90
15717;DHT22;7960;50.908;4.204;2023-07-13T06:45:28;17.00;99.90
15717;DHT22;7960;50.908;4.204;2023-07-13T06:47:56;17.20;99.90
15717;DHT22;7960;50.908;4.204;2023-07-13T06:50:23;17.30;99.90
15717;DHT22;7960;50.908;4.204;2023-07-13T06:52:50;17.20;99.90
15717;DHT22;7960;50.908;4.204;2023-07-13T06:55:18;17.30;99.90
15717;DHT22;7960;50.908;4.204;2023-07-13T06:57:45;17.30;99.90
15717;DHT22;7960;50.908;4.204;2023-07-13T07:00:13;17.20;99.90
15717;DHT22;7960;50.908;4.204;2023-07-13T07:02:40;17.30;99.90
15717;DHT22;7960;50.908;4.204;2023-07-13T07:05:08;17.30;99.90
15717;DHT22;7960;50.908;4.204;2023-07-13T07:07:35;17.40;99.90
15717;DHT22;7960;50.908;4.204;2023-07-13T07:10:02;17.40;99.90
15717;DHT22;7960;50.908;4.204;2023-07-13T07:12:29;17.50;99.90
15717;DHT22;7960;50.908;4.204;2023-07-13T07:14:56;17.60;99.90
15717;DHT22;7960;50.908;4.204;2023-07-13T07:17:23;17.70;99.90
15717;DHT22;7960;50.908;4.204;2023-07-13T07:19:50;17.90;99.90
15717;DHT22;7960;50.908;4.204;2023-07-13T07:22:21;17.90;99.90
15717;DHT22;7960;50.908;4.204;2023-07-13T07:24:47;17.80;99.90
15717;DHT22;7960;50.908;4.204;2023-07-13T07:27:14;17.80;99.90
15717;DHT22;7960;50.908;4.204;2023-07-13T07:29:41;17.80;99.90
15717;DHT22;7960;50.908;4.204;2023-07-13T07:32:08;17.70;99.90
15717;DHT22;7960;50.908;4.204;2023-07-13T07:34:35;17.70;99.90
15717;DHT22;7960;50.908;4.204;2023-07-13T07:37:02;17.80;99.90
15717;DHT22;7960;50.908;4.204;2023-07-13T07:39:31;18.10;99.90
15717;DHT22;7960;50.908;4.204;2023-07-13T07:41:58;18.10;99.90
15717;DHT22;7960;50.908;4.204;2023-07-13T07:44:25;18.30;99.90
15717;DHT22;7960;50.908;4.204;2023-07-13T07:46:54;18.50;99.90
15717;DHT22;7960;50.908;4.204;2023-07-13T07:49:20;18.60;99.90
15717;DHT22;7960;50.908;4.204;2023-07-13T07:51:47;18.60;99.90
15717;DHT22;7960;50.908;4.204;2023-07-13T07:54:15;18.50;99.90
15717;DHT22;7960;50.908;4.204;2023-07-13T07:56:44;18.60;99.90
15717;DHT22;7960;50.908;4.204;2023-07-13T07:59:10;18.60;99.90
15717;DHT22;7960;50.908;4.204;2023-07-13T08:01:37;18.70;99.90
15717;DHT22;7960;50.908;4.204;2023-07-13T08:04:04;18.70;99.90
15717;DHT22;7960;50.908;4.204;2023-07-13T08:06:31;18.90;99.90
15717;DHT22;7960;50.908;4.204;2023-07-13T08:08:59;19.00;99.90
15717;DHT22;7960;50.908;4.204;2023-07-13T08:11:27;19.10;99.90
15717;DHT22;7960;50.908;4.204;2023-07-13T08:13:55;19.20;99.90
15717;DHT22;7960;50.908;4.204;2023-07-13T08:16:22;19.30;99.90
15717;DHT22;7960;50.908;4.204;2023-07-13T08:18:49;19.10;99.90
15717;DHT22;7960;50.908;4.204;2023-07-13T08:21:16;19.10;99.90
15717;DHT22;7960;50.908;4.204;2023-07-13T08:23:45;19.20;99.90
15717;DHT22;7960;50.908;4.204;2023-07-13T08:26:12;19.20;99.90
15717;DHT22;7960;50.908;4.204;2023-07-13T08:28:40;19.10;99.90
15717;DHT22;7960;50.908;4.204;2023-07-13T08:31:09;19.10;99.90
15717;DHT22;7960;50.908;4.204;2023-07-13T08:33:37;19.10;99.90
15717;DHT22;7960;50.908;4.204;2023-07-13T08:36:06;19.30;99.90
15717;DHT22;7960;50.908;4.204;2023-07-13T08:38:33;19.50;99.90
15717;DHT22;7960;50.908;4.204;2023-07-13T08:41:09;19.60;99.90
15717;DHT22;7960;50.908;4.204;2023-07-13T08:43:37;19.60;99.90
15717;DHT22;7960;50.908;4.204;2023-07-13T08:46:11;19.70;99.90
15717;DHT22;7960;50.908;4.204;2023-07-13T08:48:42;19.60;99.90
15717;DHT22;7960;50.908;4.204;2023-07-13T08:54:09;19.80;99.90
15717;DHT22;7960;50.908;4.204;2023-07-13T08:56:36;19.70;99.90
15717;DHT22;7960;50.908;4.204;2023-07-13T08:59:09;19.90;99.90
15717;DHT22;7960;50.908;4.204;2023-07-13T09:01:53;19.90;99.90
15717;DHT22;7960;50.908;4.204;2023-07-13T09:04:25;20.10;99.90
15717;DHT22;7960;50.908;4.204;2023-07-13T09:07:00;20.10;99.90
15717;DHT22;7960;50.908;4.204;2023-07-13T09:09:38;20.10;99.90
15717;DHT22;7960;50.908;4.204;2023-07-13T09:12:15;20.00;99.90
15717;DHT22;7960;50.908;4.204;2023-07-13T09:14:47;20.10;99.90
15717;DHT22;7960;50.908;4.204;2023-07-13T09:17:20;20.10;99.90
15717;DHT22;7960;50.908;4.204;2023-07-13T09:19:54;20.10;99.90
15717;DHT22;7960;50.908;4.204;2023-07-13T09:22:21;20.00;99.90
15717;DHT22;7960;50.908;4.204;2023-07-13T09:24:55;20.00;99.90
15717;DHT22;7960;50.908;4.204;2023-07-13T09:27:29;20.20;99.90
15717;DHT22;7960;50.908;4.204;2023-07-13T09:30:02;20.40;99.90
15717;DHT22;7960;50.908;4.204;2023-07-13T09:32:33;20.50;99.90
15717;DHT22;7960;50.908;4.204;2023-07-13T09:35:00;20.60;99.90
15717;DHT22;7960;50.908;4.204;2023-07-13T09:37:31;20.80;99.90
15717;DHT22;7960;50.908;4.204;2023-07-13T09:40:01;20.90;99.90
15717;DHT22;7960;50.908;4.204;2023-07-13T09:42:32;21.30;99.90
15717;DHT22;7960;50.908;4.204;2023-07-13T09:45:01;21.40;99.90
15717;DHT22;7960;50.908;4.204;2023-07-13T09:47:31;21.60;99.90
15717;DHT22;7960;50.908;4.204;2023-07-13T09:50:01;21.60;99.90
15717;DHT22;7960;50.908;4.204;2023-07-13T09:52:40;21.10;99.90
15717;DHT22;7960;50.908;4.204;2023-07-13T09:55:23;20.70;99.90
15717;DHT22;7960;50.908;4.204;2023-07-13T09:57:50;20.50;99.90
15717;DHT22;7960;50.908;4.204;2023-07-13T10:00:22;20.50;99.90
15717;DHT22;7960;50.908;4.204;2023-07-13T10:02:59;20.70;99.90
15717;DHT22;7960;50.908;4.204;2023-07-13T10:05:27;20.60;99.90
15717;DHT22;7960;50.908;4.204;2023-07-13T10:07:56;20.50;99.90
15717;DHT22;7960;50.908;4.204;2023-07-13T10:10:23;20.50;99.90
15717;DHT22;7960;50.908;4.204;2023-07-13T10:12:50;20.50;99.90
15717;DHT22;7960;50.908;4.204;2023-07-13T10:15:22;20.60;99.90
15717;DHT22;7960;50.908;4.204;2023-07-13T10:17:52;20.80;99.90
15717;DHT22;7960;50.908;4.204;2023-07-13T10:20:20;21.10;99.90
15717;DHT22;7960;50.908;4.204;2023-07-13T10:22:52;21.20;99.90
15717;DHT22;7960;50.908;4.204;2023-07-13T10:25:22;21.10;99.90
15717;DHT22;7960;50.908;4.204;2023-07-13T10:27:53;21.00;99.90
15717;DHT22;7960;50.908;4.204;2023-07-13T10:30:23;20.70;99.90
15717;DHT22;7960;50.908;4.204;2023-07-13T10:32:53;20.70;99.90
15717;DHT22;7960;50.908;4.204;2023-07-13T10:35:22;20.90;99.90
15717;DHT22;7960;50.908;4.204;2023-07-13T10:37:53;21.10;99.90
15717;DHT22;7960;50.908;4.204;2023-07-13T10:40:27;21.10;99.90
15717;DHT22;7960;50.908;4.204;2023-07-13T10:42:58;20.90;99.90
15717;DHT22;7960;50.908;4.204;2023-07-13T10:45:26;20.80;99.90
15717;DHT22;7960;50.908;4.204;2023-07-13T10:47:55;20.80;99.90
15717;DHT22;7960;50.908;4.204;2023-07-13T10:50:25;20.90;99.90
15717;DHT22;7960;50.908;4.204;2023-07-13T10:52:55;21.10;99.90
15717;DHT22;7960;50.908;4.204;2023-07-13T10:55:37;21.20;99.90
15717;DHT22;7960;50.908;4.204;2023-07-13T10:58:18;21.50;99.90
15717;DHT22;7960;50.908;4.204;2023-07-13T11:01:01;22.00;99.90
15717;DHT22;7960;50.908;4.204;2023-07-13T11:03:30;22.20;99.90
15717;DHT22;7960;50.908;4.204;2023-07-13T11:06:08;22.50;99.90
15717;DHT22;7960;50.908;4.204;2023-07-13T11:08:38;22.50;99.90
15717;DHT22;7960;50.908;4.204;2023-07-13T11:11:35;22.40;99.90
15717;DHT22;7960;50.908;4.204;2023-07-13T11:14:04;22.10;99.90
15717;DHT22;7960;50.908;4.204;2023-07-13T11:16:42;22.00;99.90
15717;DHT22;7960;50.908;4.204;2023-07-13T11:19:37;22.00;99.90
15717;DHT22;7960;50.908;4.204;2023-07-13T11:22:37;22.20;99.90
15717;DHT22;7960;50.908;4.204;2023-07-13T11:25:34;22.10;99.90
15717;DHT22;7960;50.908;4.204;2023-07-13T11:28:24;22.00;99.90
15717;DHT22;7960;50.908;4.204;2023-07-13T11:31:12;21.60;99.90
15717;DHT22;7960;50.908;4.204;2023-07-13T11:33:53;21.40;99.90
15717;DHT22;7960;50.908;4.204;2023-07-13T11:36:22;21.20;99.90
15717;DHT22;7960;50.908;4.204;2023-07-13T11:38:57;21.00;99.90
15717;DHT22;7960;50.908;4.204;2023-07-13T11:41:29;20.90;99.90
15717;DHT22;7960;50.908;4.204;2023-07-13T11:44:06;20.60;99.90
15717;DHT22;7960;50.908;4.204;2023-07-13T11:46:34;20.60;99.90
15717;DHT22;7960;50.908;4.204;2023-07-13T11:49:01;20.40;99.90
15717;DHT22;7960;50.908;4.204;2023-07-13T11:51:33;20.40;99.90
15717;DHT22;7960;50.908;4.204;2023-07-13T11:54:03;20.40;99.90
15717;DHT22;7960;50.908;4.204;2023-07-13T11:56:34;20.50;99.90
15717;DHT22;7960;50.908;4.204;2023-07-13T11:59:06;20.50;99.90
15717;DHT22;7960;50.908;4.204;2023-07-13T12:01:34;20.50;99.90
15717;DHT22;7960;50.908;4.204;2023-07-13T12:04:04;20.50;99.90
15717;DHT22;7960;50.908;4.204;2023-07-13T12:06:33;20.20;99.90
15717;DHT22;7960;50.908;4.204;2023-07-13T12:09:10;19.80;99.90
15717;DHT22;7960;50.908;4.204;2023-07-13T12:11:40;19.60;99.90
15717;DHT22;7960;50.908;4.204;2023-07-13T12:14:13;19.50;99.90
15717;DHT22;7960;50.908;4.204;2023-07-13T12:16:40;19.20;99.90
15717;DHT22;7960;50.908;4.204;2023-07-13T12:19:16;19.20;99.90
15717;DHT22;7960;50.908;4.204;2023-07-13T12:21:44;19.30;99.90
15717;DHT22;7960;50.908;4.204;2023-07-13T12:24:14;19.40;99.90
15717;DHT22;7960;50.908;4.204;2023-07-13T12:26:43;19.50;99.90
15717;DHT22;7960;50.908;4.204;2023-07-13T12:29:13;19.60;99.90
15717;DHT22;7960;50.908;4.204;2023-07-13T12:31:43;19.60;99.90
15717;DHT22;7960;50.908;4.204;2023-07-13T12:34:12;19.60;99.90
15717;DHT22;7960;50.908;4.204;2023-07-13T12:36:46;19.40;99.90
15717;DHT22;7960;50.908;4.204;2023-07-13T12:39:17;19.40;99.90
15717;DHT22;7960;50.908;4.204;2023-07-13T12:41:48;19.40;99.90
15717;DHT22;7960;50.908;4.204;2023-07-13T12:44:18;19.30;99.90
15717;DHT22;7960;50.908;4.204;2023-07-13T12:46:53;19.20;99.90
15717;DHT22;7960;50.908;4.204;2023-07-13T12:49:24;19.40;99.90
15717;DHT22;7960;50.908;4.204;2023-07-13T12:51:56;19.40;99.90
15717;DHT22;7960;50.908;4.204;2023-07-13T12:54:24;19.30;99.90
15717;DHT22;7960;50.908;4.204;2023-07-13T12:56:54;19.50;99.90
15717;DHT22;7960;50.908;4.204;2023-07-13T12:59:29;19.50;99.90
15717;DHT22;7960;50.908;4.204;2023-07-13T13:01:59;19.70;99.90
15717;DHT22;7960;50.908;4.204;2023-07-13T13:04:25;19.70;99.90
15717;DHT22;7960;50.908;4.204;2023-07-13T13:07:01;19.40;99.90
15717;DHT22;7960;50.908;4.204;2023-07-13T13:09:28;19.30;99.90
15717;DHT22;7960;50.908;4.204;2023-07-13T13:11:57;19.30;99.90
15717;DHT22;7960;50.908;4.204;2023-07-13T13:14:24;19.50;99.90
15717;DHT22;7960;50.908;4.204;2023-07-13T13:16:52;19.50;99.90
15717;DHT22;7960;50.908;4.204;2023-07-13T13:19:22;19.40;99.90
15717;DHT22;7960;50.908;4.204;2023-07-13T13:21:50;19.70;99.90
15717;DHT22;7960;50.908;4.204;2023-07-13T13:24:19;20.30;99.90
15717;DHT22;7960;50.908;4.204;2023-07-13T13:26:47;21.00;99.90
15717;DHT22;7960;50.908;4.204;2023-07-13T13:29:18;21.40;99.90
15717;DHT22;7960;50.908;4.204;2023-07-13T13:31:46;21.60;99.90
15717;DHT22;7960;50.908;4.204;2023-07-13T13:34:15;21.90;99.90
15717;DHT22;7960;50.908;4.204;2023-07-13T13:36:43;22.10;99.90
15717;DHT22;7960;50.908;4.204;2023-07-13T13:39:19;22.70;99.90
15717;DHT22;7960;50.908;4.204;2023-07-13T13:41:47;23.10;99.90
15717;DHT22;7960;50.908;4.204;2023-07-13T13:44:16;22.90;99.90
15717;DHT22;7960;50.908;4.204;2023-07-13T13:46:45;23.20;99.50
15717;DHT22;7960;50.908;4.204;2023-07-13T13:49:15;23.60;99.00
15717;DHT22;7960;50.908;4.204;2023-07-13T13:51:43;23.50;97.80
15717;DHT22;7960;50.908;4.204;2023-07-13T13:54:12;23.90;96.70
15717;DHT22;7960;50.908;4.204;2023-07-13T13:56:41;24.00;95.90
15717;DHT22;7960;50.908;4.204;2023-07-13T13:59:08;23.90;96.20
15717;DHT22;7960;50.908;4.204;2023-07-13T14:01:37;24.10;95.70
15717;DHT22;7960;50.908;4.204;2023-07-13T14:04:04;24.00;95.30
15717;DHT22;7960;50.908;4.204;2023-07-13T14:06:32;24.10;95.00
15717;DHT22;7960;50.908;4.204;2023-07-13T14:08:59;24.40;95.10
15717;DHT22;7960;50.908;4.204;2023-07-13T14:11:27;24.80;95.30
15717;DHT22;7960;50.908;4.204;2023-07-13T14:13:58;24.90;94.70
15717;DHT22;7960;50.908;4.204;2023-07-13T14:16:27;24.80;94.50
15717;DHT22;7960;50.908;4.204;2023-07-13T14:18:58;24.70;94.50
15717;DHT22;7960;50.908;4.204;2023-07-13T14:21:27;24.80;94.40
15717;DHT22;7960;50.908;4.204;2023-07-13T14:23:54;25.00;94.00
15717;DHT22;7960;50.908;4.204;2023-07-13T14:26:23;24.60;93.40
15717;DHT22;7960;50.908;4.204;2023-07-13T14:28:51;24.80;93.90
15717;DHT22;7960;50.908;4.204;2023-07-13T14:31:20;24.50;93.30
15717;DHT22;7960;50.908;4.204;2023-07-13T14:33:47;25.10;93.10
15717;DHT22;7960;50.908;4.204;2023-07-13T14:36:25;24.60;93.10
15717;DHT22;7960;50.908;4.204;2023-07-13T14:38:53;24.90;94.00
15717;DHT22;7960;50.908;4.204;2023-07-13T14:41:20;25.10;93.60
15717;DHT22;7960;50.908;4.204;2023-07-13T14:43:47;24.90;93.20
15717;DHT22;7960;50.908;4.204;2023-07-13T14:46:27;24.30;93.70
15717;DHT22;7960;50.908;4.204;2023-07-13T14:48:59;24.20;93.70
15717;DHT22;7960;50.908;4.204;2023-07-13T14:51:29;24.70;93.90
15717;DHT22;7960;50.908;4.204;2023-07-13T14:53:56;25.50;93.00
15717;DHT22;7960;50.908;4.204;2023-07-13T14:56:23;25.40;92.10
15717;DHT22;7960;50.908;4.204;2023-07-13T14:58:50;25.50;92.80
15717;DHT22;7960;50.908;4.204;2023-07-13T15:01:19;25.40;91.30
15717;DHT22;7960;50.908;4.204;2023-07-13T15:03:49;25.70;92.10
15717;DHT22;7960;50.908;4.204;2023-07-13T15:06:16;26.00;89.90
15717;DHT22;7960;50.908;4.204;2023-07-13T15:08:46;26.40;87.70
15717;DHT22;7960;50.908;4.204;2023-07-13T15:11:14;26.60;86.50
15717;DHT22;7960;50.908;4.204;2023-07-13T15:13:41;26.90;82.30
15717;DHT22;7960;50.908;4.204;2023-07-13T15:16:15;27.00;76.70
15717;DHT22;7960;50.908;4.204;2023-07-13T15:18:42;27.10;75.00
15717;DHT22;7960;50.908;4.204;2023-07-13T15:21:11;27.00;73.80
15717;DHT22;7960;50.908;4.204;2023-07-13T15:23:40;26.50;74.20
15717;DHT22;7960;50.908;4.204;2023-07-13T15:26:12;26.70;74.90
15717;DHT22;7960;50.908;4.204;2023-07-13T15:28:40;26.30;76.00
15717;DHT22;7960;50.908;4.204;2023-07-13T15:31:18;25.70;74.90
15717;DHT22;7960;50.908;4.204;2023-07-13T15:33:45;25.20;74.70
15717;DHT22;7960;50.908;4.204;2023-07-13T15:36:14;25.40;76.10
15717;DHT22;7960;50.908;4.204;2023-07-13T15:38:40;25.80;75.60
15717;DHT22;7960;50.908;4.204;2023-07-13T15:41:16;25.80;73.50
15717;DHT22;7960;50.908;4.204;2023-07-13T15:43:44;25.40;73.80
15717;DHT22;7960;50.908;4.204;2023-07-13T15:46:11;25.50;75.30
15717;DHT22;7960;50.908;4.204;2023-07-13T15:48:38;25.50;75.80
15717;DHT22;7960;50.908;4.204;2023-07-13T15:51:16;26.00;74.00
15717;DHT22;7960;50.908;4.204;2023-07-13T15:53:45;26.20;71.60
15717;DHT22;7960;50.908;4.204;2023-07-13T15:56:20;26.50;71.80
15717;DHT22;7960;50.908;4.204;2023-07-13T15:58:48;26.20;71.40
15717;DHT22;7960;50.908;4.204;2023-07-13T16:01:16;26.40;73.40